Hidrolandia, Brazil
Current Conditions -  °F | °C
As of 1:00 PM on Tuesday 21 Oct 2014 (Local Time) from SBGO Reporting Station
Few Clouds Few Clouds  
Wind Chill: 90°   Ceiling: Unl
Heat Index: 90°   Visibility: 6mi
Dew Point: 54°   Wind: 8mph
Humidity: 29%   Direction: 120°ESE
Pressure: 30"   Gusts: NA
Location:  16.96°S, 49.23°W
Report Text: SBGO 211500Z 12007KT 9999 FEW040 32/12 Q1016
Loading
Personal Weather Stations






























Interactive Weather Map
Tropical Storm Tracking
New forecast layout! Learn more

10-Day Weather Forecast

Advertisements
Track Severe Weather on mobile